Terminal Aerodrome Forecast
Issued by NWS

Home | Current Version | Previous Version | Text Only | Print | Product List | Glossary On
Versions: 1 2 3 4 5 6 7 8 9 10 11 12 13 14 15 16 17 18 19 20 21 22 23 24 25 26 27 28 29 30 31 32 33 34 35
000
FTUS43 KLOT 212200 AAC
TAFORD
TAF AMD
KORD 212204Z 2122/2224 03011G16KT P6SM BKN050
     FM220000 01011KT P6SM BKN050
     FM220300 01008KT P6SM SCT040
     FM220600 34004KT P6SM SKC
     FM221400 31007KT P6SM SKC=

USA.gov is the U.S. government's official web portal to all federal, state and local government web resources and services.